PWSweather.com
Personal Weather Stations
Station Observations
KC4YGB
E3801 Natural Bridge Road, Rock Cave, WV 26234

E3801 Natural Bridge RoadRock Cave, WV 26234

Lat: 38.842212, Lon: -80.272288

Elevation: 1857

Station Type: Davis Vantage Vue

https://www.facebook.com/WVWXA

Latest ConditionsUpdated 7:01:32 AM EDT Monday, Apr 24, 2017
Currently Today's Max Today's Min Today's Average
Temperature 47.7°F8.7°C 58.3°F14.6°C 47.4°F8.6°C 50.1°F10.1°C
Dew Point 46.3°F7.9°C 46.3°F7.9°C 34.2°F1.2°C 42.5°F5.8°C
Winds Calm Calm 6.0 mph NE9.7 kmh NE - 0.3 mph 0.5 kmh
Wind Gusts -- 7.0 mph11.3 kmh - -
Humidity 95% 95% 41% 76%
Pressure 29.94 in1013.9 mb 30.03 in1016.9 mb 29.93 in1013.5 mb -
Precipitation - 0.06 in1.5 mm - -
Hour Temp Dew Point Humidity Winds Wind Gusts Pressure Precip Precip Rate Daily Precip Total
07:01 AM 47.7°F8.7°C 46.3°F7.9°C 95% Calm Calm -- 29.94 in1013.9 mb 0.00 in0.0 mm 0.00 in0.0 mm 0.06 in1.5 mm
06:56 AM 47.7°F8.7°C 46.3°F7.9°C 95% 1.0 mph N1.6 kmh N 1.0 mph1.6 kmh 29.94 in1013.9 mb 0.00 in0.0 mm 0.00 in0.0 mm 0.05 in1.3 mm
06:51 AM 58.3°F14.6°C 39.2°F4.0°C 49% 6.0 mph NE9.7 kmh NE 7.0 mph11.3 kmh 30.03 in1016.9 mb 0.00 in0.0 mm 0.00 in0.0 mm 0.04 in1.0 mm
06:46 AM 47.7°F8.7°C 46.1°F7.8°C 94% Calm Calm -- 29.93 in1013.5 mb 0.00 in0.0 mm 0.00 in0.0 mm 0.05 in1.3 mm
06:41 AM 47.6°F8.7°C 46.0°F7.8°C 94% Calm Calm -- 29.93 in1013.5 mb 0.00 in0.0 mm 0.00 in0.0 mm 0.05 in1.3 mm
06:36 AM 47.6°F8.7°C 46.0°F7.8°C 94% Calm Calm 1.0 mph1.6 kmh 29.93 in1013.5 mb 0.00 in0.0 mm 0.00 in0.0 mm 0.05 in1.3 mm
06:31 AM 47.6°F8.7°C 46.0°F7.8°C 94% Calm Calm 1.0 mph1.6 kmh 29.93 in1013.5 mb 0.00 in0.0 mm 0.00 in0.0 mm 0.05 in1.3 mm
06:26 AM 47.5°F8.6°C 45.9°F7.7°C 94% Calm Calm -- 29.93 in1013.5 mb 0.00 in0.0 mm 0.00 in0.0 mm 0.05 in1.3 mm
06:21 AM 47.5°F8.6°C 45.9°F7.7°C 94% Calm Calm -- 29.93 in1013.5 mb 0.00 in0.0 mm 0.00 in0.0 mm 0.05 in1.3 mm
06:16 AM 47.5°F8.6°C 45.9°F7.7°C 94% Calm Calm -- 29.93 in1013.5 mb 0.00 in0.0 mm 0.00 in0.0 mm 0.05 in1.3 mm
06:11 AM 47.5°F8.6°C 45.9°F7.7°C 94% Calm Calm -- 29.93 in1013.5 mb 0.00 in0.0 mm 0.00 in0.0 mm 0.05 in1.3 mm
06:06 AM 47.5°F8.6°C 45.9°F7.7°C 94% Calm Calm -- 29.93 in1013.5 mb 0.00 in0.0 mm 0.00 in0.0 mm 0.05 in1.3 mm
06:01 AM 47.5°F8.6°C 45.9°F7.7°C 94% Calm Calm -- 29.93 in1013.5 mb 0.00 in0.0 mm 0.00 in0.0 mm 0.05 in1.3 mm
05:56 AM 47.5°F8.6°C 45.6°F7.6°C 93% Calm Calm -- 29.93 in1013.5 mb 0.00 in0.0 mm 0.00 in0.0 mm 0.05 in1.3 mm
05:51 AM 47.5°F8.6°C 45.6°F7.6°C 93% Calm Calm -- 29.93 in1013.5 mb 0.00 in0.0 mm 0.00 in0.0 mm 0.04 in1.0 mm
05:46 AM 47.4°F8.6°C 45.5°F7.5°C 93% Calm Calm 1.0 mph1.6 kmh 29.93 in1013.5 mb 0.00 in0.0 mm 0.00 in0.0 mm 0.04 in1.0 mm
05:41 AM 47.4°F8.6°C 45.5°F7.5°C 93% Calm Calm -- 29.93 in1013.5 mb 0.00 in0.0 mm 0.00 in0.0 mm 0.04 in1.0 mm
05:36 AM 47.4°F8.6°C 45.5°F7.5°C 93% Calm Calm -- 29.93 in1013.5 mb 0.00 in0.0 mm 0.00 in0.0 mm 0.04 in1.0 mm
05:31 AM 47.5°F8.6°C 45.3°F7.4°C 92% Calm Calm -- 29.93 in1013.5 mb 0.00 in0.0 mm 0.00 in0.0 mm 0.04 in1.0 mm
05:26 AM 47.6°F8.7°C 45.4°F7.4°C 92% Calm Calm -- 29.93 in1013.5 mb 0.00 in0.0 mm 0.00 in0.0 mm 0.04 in1.0 mm
05:21 AM 47.7°F8.7°C 45.5°F7.5°C 92% Calm Calm -- 29.93 in1013.5 mb 0.00 in0.0 mm 0.00 in0.0 mm 0.04 in1.0 mm
05:16 AM 47.8°F8.8°C 45.6°F7.6°C 92% Calm Calm -- 29.93 in1013.5 mb 0.00 in0.0 mm 0.00 in0.0 mm 0.03 in0.8 mm
05:11 AM 47.9°F8.8°C 45.7°F7.6°C 92% Calm Calm -- 29.93 in1013.5 mb 0.00 in0.0 mm 0.00 in0.0 mm 0.03 in0.8 mm
05:06 AM 47.9°F8.8°C 45.4°F7.4°C 91% Calm Calm -- 29.93 in1013.5 mb 0.00 in0.0 mm 0.00 in0.0 mm 0.03 in0.8 mm
05:01 AM 48.0°F8.9°C 45.5°F7.5°C 91% Calm Calm -- 29.93 in1013.5 mb 0.04 in1.0 mm 0.00 in0.0 mm 0.03 in0.8 mm
04:56 AM 48.1°F8.9°C 45.3°F7.4°C 90% Calm Calm -- 29.93 in1013.5 mb 0.04 in1.0 mm 0.00 in0.0 mm 0.03 in0.8 mm
04:51 AM 48.3°F9.1°C 45.5°F7.5°C 90% Calm Calm -- 29.93 in1013.5 mb 0.04 in1.0 mm 0.48 in12.2 mm 0.03 in0.8 mm
04:46 AM 48.4°F9.1°C 45.3°F7.4°C 89% Calm Calm -- 29.93 in1013.5 mb 0.00 in0.0 mm 0.00 in0.0 mm 0.02 in0.5 mm
04:41 AM 48.5°F9.2°C 45.4°F7.4°C 89% Calm Calm -- 29.94 in1013.9 mb 0.00 in0.0 mm 0.00 in0.0 mm 0.02 in0.5 mm
04:36 AM 48.5°F9.2°C 45.4°F7.4°C 89% Calm Calm -- 29.94 in1013.9 mb 0.00 in0.0 mm 0.00 in0.0 mm 0.02 in0.5 mm
04:31 AM 48.4°F9.1°C 45.0°F7.2°C 88% Calm Calm -- 29.94 in1013.9 mb 0.00 in0.0 mm 0.00 in0.0 mm 0.01 in0.3 mm
04:26 AM 48.4°F9.1°C 44.7°F7.1°C 87% Calm Calm -- 29.94 in1013.9 mb 0.00 in0.0 mm 0.00 in0.0 mm 0.01 in0.3 mm
04:21 AM 48.4°F9.1°C 44.7°F7.1°C 87% Calm Calm -- 29.94 in1013.9 mb 0.00 in0.0 mm 0.00 in0.0 mm 0.01 in0.3 mm
04:16 AM 48.5°F9.2°C 44.8°F7.1°C 87% Calm Calm -- 29.93 in1013.5 mb 0.00 in0.0 mm 0.00 in0.0 mm 0.01 in0.3 mm
04:11 AM 48.6°F9.2°C 44.6°F7.0°C 86% Calm Calm -- 29.93 in1013.5 mb 0.00 in0.0 mm 0.00 in0.0 mm 0.01 in0.3 mm
04:06 AM 48.7°F9.3°C 44.7°F7.1°C 86% Calm Calm -- 29.94 in1013.9 mb 0.00 in0.0 mm 0.00 in0.0 mm 0.01 in0.3 mm
04:01 AM 48.8°F9.3°C 44.5°F6.9°C 85% Calm Calm -- 29.94 in1013.9 mb 0.00 in0.0 mm 0.00 in0.0 mm 0.01 in0.3 mm
03:56 AM 48.9°F9.4°C 44.3°F6.8°C 84% Calm Calm -- 29.94 in1013.9 mb 0.00 in0.0 mm 0.00 in0.0 mm 0.01 in0.3 mm
03:51 AM 49.1°F9.5°C 44.2°F6.8°C 83% Calm Calm -- 29.94 in1013.9 mb 0.00 in0.0 mm 0.00 in0.0 mm 0.01 in0.3 mm
03:46 AM 49.3°F9.6°C 44.0°F6.7°C 82% Calm Calm 1.0 mph1.6 kmh 29.94 in1013.9 mb 0.00 in0.0 mm 0.00 in0.0 mm 0.00 in0.0 mm
03:41 AM 49.5°F9.7°C 43.9°F6.6°C 81% 1.0 mph N1.6 kmh N 1.0 mph1.6 kmh 29.94 in1013.9 mb 0.00 in0.0 mm 0.00 in0.0 mm 0.00 in0.0 mm
03:36 AM 49.6°F9.8°C 43.4°F6.3°C 79% Calm Calm 1.0 mph1.6 kmh 29.94 in1013.9 mb 0.00 in0.0 mm 0.00 in0.0 mm 0.00 in0.0 mm
03:31 AM 49.6°F9.8°C 43.4°F6.3°C 79% Calm Calm 1.0 mph1.6 kmh 29.94 in1013.9 mb 0.00 in0.0 mm 0.00 in0.0 mm 0.00 in0.0 mm
03:26 AM 49.6°F9.8°C 43.4°F6.3°C 79% Calm Calm -- 29.94 in1013.9 mb 0.00 in0.0 mm 0.00 in0.0 mm 0.00 in0.0 mm
03:21 AM 49.7°F9.8°C 43.5°F6.4°C 79% Calm Calm -- 29.94 in1013.9 mb 0.00 in0.0 mm 0.00 in0.0 mm 0.00 in0.0 mm
03:16 AM 49.7°F9.8°C 42.8°F6.0°C 77% Calm Calm 2.0 mph3.2 kmh 29.95 in1014.2 mb 0.00 in0.0 mm 0.00 in0.0 mm 0.00 in0.0 mm
03:11 AM 49.7°F9.8°C 42.8°F6.0°C 77% Calm Calm -- 29.95 in1014.2 mb 0.00 in0.0 mm 0.00 in0.0 mm 0.00 in0.0 mm
03:06 AM 49.7°F9.8°C 43.1°F6.2°C 78% Calm Calm -- 29.95 in1014.2 mb 0.00 in0.0 mm 0.00 in0.0 mm 0.00 in0.0 mm
03:01 AM 49.9°F9.9°C 43.0°F6.1°C 77% Calm Calm -- 29.95 in1014.2 mb 0.00 in0.0 mm 0.00 in0.0 mm 0.00 in0.0 mm
02:56 AM 50.0°F10.0°C 42.4°F5.8°C 75% Calm Calm -- 29.96 in1014.6 mb 0.00 in0.0 mm 0.00 in0.0 mm 0.00 in0.0 mm
02:51 AM 50.1°F10.1°C 42.1°F5.6°C 74% Calm Calm -- 29.96 in1014.6 mb 0.00 in0.0 mm 0.00 in0.0 mm 0.00 in0.0 mm
02:46 AM 50.3°F10.2°C 42.7°F5.9°C 75% Calm Calm -- 29.96 in1014.6 mb 0.00 in0.0 mm 0.00 in0.0 mm 0.00 in0.0 mm
02:41 AM 50.5°F10.3°C 42.5°F5.8°C 74% Calm Calm -- 29.96 in1014.6 mb 0.00 in0.0 mm 0.00 in0.0 mm 0.00 in0.0 mm
02:36 AM 50.5°F10.3°C 42.2°F5.7°C 73% Calm Calm 2.0 mph3.2 kmh 29.96 in1014.6 mb 0.00 in0.0 mm 0.00 in0.0 mm 0.00 in0.0 mm
02:31 AM 50.7°F10.4°C 42.0°F5.6°C 72% Calm Calm -- 29.97 in1014.9 mb 0.00 in0.0 mm 0.00 in0.0 mm 0.00 in0.0 mm
02:26 AM 51.0°F10.6°C 41.6°F5.3°C 70% Calm Calm -- 29.97 in1014.9 mb 0.00 in0.0 mm 0.00 in0.0 mm 0.00 in0.0 mm
02:21 AM 51.3°F10.7°C 41.5°F5.3°C 69% Calm Calm -- 29.97 in1014.9 mb 0.00 in0.0 mm 0.00 in0.0 mm 0.00 in0.0 mm
02:16 AM 51.5°F10.8°C 41.3°F5.2°C 68% Calm Calm 1.0 mph1.6 kmh 29.97 in1014.9 mb 0.00 in0.0 mm 0.00 in0.0 mm 0.00 in0.0 mm
02:11 AM 51.7°F10.9°C 41.1°F5.1°C 67% Calm Calm 1.0 mph1.6 kmh 29.98 in1015.2 mb 0.00 in0.0 mm 0.00 in0.0 mm 0.00 in0.0 mm
02:06 AM 51.9°F11.1°C 40.9°F4.9°C 66% Calm Calm 3.0 mph4.8 kmh 29.98 in1015.2 mb 0.00 in0.0 mm 0.00 in0.0 mm 0.00 in0.0 mm
02:01 AM 52.0°F11.1°C 40.6°F4.8°C 65% Calm Calm 1.0 mph1.6 kmh 29.98 in1015.2 mb 0.00 in0.0 mm 0.00 in0.0 mm 0.00 in0.0 mm
01:56 AM 52.0°F11.1°C 40.2°F4.6°C 64% 1.0 mph N1.6 kmh N 1.0 mph1.6 kmh 29.98 in1015.2 mb 0.00 in0.0 mm 0.00 in0.0 mm 0.00 in0.0 mm
01:51 AM 52.1°F11.2°C 40.3°F4.6°C 64% Calm Calm -- 29.98 in1015.2 mb 0.00 in0.0 mm 0.00 in0.0 mm 0.00 in0.0 mm
01:46 AM 52.3°F11.3°C 40.5°F4.7°C 64% Calm Calm 2.0 mph3.2 kmh 29.98 in1015.2 mb 0.00 in0.0 mm 0.00 in0.0 mm 0.00 in0.0 mm
01:41 AM 52.4°F11.3°C 39.8°F4.3°C 62% Calm Calm 2.0 mph3.2 kmh 29.98 in1015.2 mb 0.00 in0.0 mm 0.00 in0.0 mm 0.00 in0.0 mm
01:36 AM 52.5°F11.4°C 39.4°F4.1°C 61% 2.0 mph N3.2 kmh N 3.0 mph4.8 kmh 29.99 in1015.6 mb 0.00 in0.0 mm 0.00 in0.0 mm 0.00 in0.0 mm
01:31 AM 52.5°F11.4°C 39.0°F3.9°C 60% 1.0 mph N1.6 kmh N 3.0 mph4.8 kmh 29.99 in1015.6 mb 0.00 in0.0 mm 0.00 in0.0 mm 0.00 in0.0 mm
01:26 AM 52.5°F11.4°C 39.0°F3.9°C 60% Calm Calm 3.0 mph4.8 kmh 29.99 in1015.6 mb 0.00 in0.0 mm 0.00 in0.0 mm 0.00 in0.0 mm
01:21 AM 52.6°F11.4°C 38.7°F3.7°C 59% Calm Calm 1.0 mph1.6 kmh 29.99 in1015.6 mb 0.00 in0.0 mm 0.00 in0.0 mm 0.00 in0.0 mm
01:16 AM 52.6°F11.4°C 38.7°F3.7°C 59% 1.0 mph N1.6 kmh N 1.0 mph1.6 kmh 29.99 in1015.6 mb 0.00 in0.0 mm 0.00 in0.0 mm 0.00 in0.0 mm
01:11 AM 52.7°F11.5°C 38.8°F3.8°C 59% Calm Calm 1.0 mph1.6 kmh 29.99 in1015.6 mb 0.00 in0.0 mm 0.00 in0.0 mm 0.00 in0.0 mm
01:06 AM 52.6°F11.4°C 38.2°F3.4°C 58% 2.0 mph NNW3.2 kmh NNW 3.0 mph4.8 kmh 29.99 in1015.6 mb 0.00 in0.0 mm 0.00 in0.0 mm 0.00 in0.0 mm
01:01 AM 52.7°F11.5°C 38.3°F3.5°C 58% Calm Calm 1.0 mph1.6 kmh 29.99 in1015.6 mb 0.00 in0.0 mm 0.00 in0.0 mm 0.00 in0.0 mm
12:56 AM 52.8°F11.6°C 38.0°F3.3°C 57% 1.0 mph NNE1.6 kmh NNE 2.0 mph3.2 kmh 29.99 in1015.6 mb 0.00 in0.0 mm 0.00 in0.0 mm 0.00 in0.0 mm
12:51 AM 52.9°F11.6°C 37.6°F3.1°C 56% Calm Calm -- 30.00 in1015.9 mb 0.00 in0.0 mm 0.00 in0.0 mm 0.00 in0.0 mm
12:46 AM 52.9°F11.6°C 37.6°F3.1°C 56% Calm Calm -- 29.99 in1015.6 mb 0.00 in0.0 mm 0.00 in0.0 mm 0.00 in0.0 mm
12:41 AM 57.8°F14.3°C 34.2°F1.2°C 41% 1.0 mph NNE1.6 kmh NNE 5.0 mph8.0 kmh 29.99 in1015.6 mb 0.00 in0.0 mm 0.00 in0.0 mm 0.00 in0.0 mm
12:36 AM 53.0°F11.7°C 37.3°F2.9°C 55% Calm Calm -- 30.00 in1015.9 mb 0.00 in0.0 mm 0.00 in0.0 mm 0.00 in0.0 mm
12:31 AM 53.1°F11.7°C 36.4°F2.4°C 53% Calm Calm -- 30.00 in1015.9 mb 0.00 in0.0 mm 0.00 in0.0 mm 0.00 in0.0 mm
12:26 AM 53.3°F11.8°C 36.6°F2.6°C 53% Calm Calm 1.0 mph1.6 kmh 29.99 in1015.6 mb 0.00 in0.0 mm 0.00 in0.0 mm 0.00 in0.0 mm
12:21 AM 53.4°F11.9°C 36.2°F2.3°C 52% 1.0 mph NNE1.6 kmh NNE 1.0 mph1.6 kmh 30.00 in1015.9 mb 0.00 in0.0 mm 0.00 in0.0 mm 0.00 in0.0 mm
12:16 AM 53.6°F12.0°C 36.4°F2.4°C 52% 1.0 mph NNE1.6 kmh NNE 4.0 mph6.4 kmh 30.00 in1015.9 mb 0.00 in0.0 mm 0.00 in0.0 mm 0.00 in0.0 mm
12:11 AM 53.7°F12.1°C 36.0°F2.2°C 51% 3.0 mph NE4.8 kmh NE 3.0 mph4.8 kmh 30.00 in1015.9 mb 0.00 in0.0 mm 0.00 in0.0 mm 0.00 in0.0 mm
12:06 AM 53.8°F12.1°C 36.1°F2.3°C 51% 2.0 mph NE3.2 kmh NE 5.0 mph8.0 kmh 30.00 in1015.9 mb 0.00 in0.0 mm 0.00 in0.0 mm 0.00 in0.0 mm
12:01 AM 53.9°F12.2°C 36.2°F2.3°C 51% 4.0 mph NNE6.4 kmh NNE 4.0 mph6.4 kmh 30.00 in1015.9 mb 0.00 in0.0 mm 0.00 in0.0 mm 0.00 in0.0 mm